Time;durP1;ratioP1;P1;durP2;ratioP2;P2;SDS_P1;SDS_P2;PMS_P1;PMS_P2;Temp;Humidity;BMP_temperature;BMP_pressure;BME280_temperature;BME280_humidity;BME280_pressure;Samples;Min_cycle;Max_cycle;Signal;HPM_P1;HPM_P2
2021/07/16 00:02:23;;;;;;;27.27;20.52;;;19.00;99.90;;;;;;4997654;28;20038;-58
2021/07/16 00:04:49;;;;;;;35.17;20.25;;;19.00;99.90;;;;;;4997871;28;20038;-62
2021/07/16 00:07:15;;;;;;;36.38;21.10;;;19.00;99.90;;;;;;5004358;28;20559;-63
2021/07/16 00:09:40;;;;;;;37.50;22.35;;;18.90;99.90;;;;;;5004324;28;20053;-60
2021/07/16 00:12:06;;;;;;;31.67;21.05;;;18.90;99.90;;;;;;5005260;28;20121;-61
2021/07/16 00:14:32;;;;;;;29.25;19.80;;;18.90;99.90;;;;;;4976504;28;20405;-60
2021/07/16 00:17:01;;;;;;;33.72;22.55;;;18.90;99.90;;;;;;4964427;28;20109;-61
2021/07/16 00:19:27;;;;;;;37.22;20.15;;;18.90;99.90;;;;;;4990283;28;20030;-61
2021/07/16 00:21:53;;;;;;;37.78;21.17;;;18.90;99.90;;;;;;4989464;28;20034;-61
2021/07/16 00:24:19;;;;;;;39.05;21.92;;;18.90;99.90;;;;;;4991306;28;20022;-60
2021/07/16 00:26:46;;;;;;;38.92;22.75;;;18.80;99.90;;;;;;4991698;28;20266;-60
2021/07/16 00:29:12;;;;;;;35.20;22.33;;;18.80;99.90;;;;;;4995891;28;20157;-61
2021/07/16 00:31:38;;;;;;;41.40;23.05;;;18.80;99.90;;;;;;4984126;28;20035;-60
2021/07/16 00:34:04;;;;;;;40.33;22.83;;;18.80;99.90;;;;;;4986176;28;20047;-61
2021/07/16 00:36:29;;;;;;;32.17;20.00;;;18.80;99.90;;;;;;4990343;28;20019;-62
2021/07/16 00:38:55;;;;;;;38.40;21.67;;;18.80;99.90;;;;;;4991486;28;20136;-62
2021/07/16 00:41:20;;;;;;;37.80;21.50;;;18.70;99.90;;;;;;4992090;28;20046;-61
2021/07/16 00:43:46;;;;;;;35.53;21.55;;;18.70;99.90;;;;;;4990783;28;20034;-62
2021/07/16 00:46:11;;;;;;;36.67;19.55;;;18.70;99.90;;;;;;4994700;28;20111;-59
2021/07/16 00:48:37;;;;;;;37.10;19.70;;;18.70;99.90;;;;;;4992274;28;20157;-59
2021/07/16 00:51:03;;;;;;;36.13;19.90;;;18.80;99.90;;;;;;4988002;28;20066;-62
2021/07/16 00:53:29;;;;;;;37.00;18.35;;;18.70;99.90;;;;;;4988999;28;20054;-63
2021/07/16 00:55:55;;;;;;;38.83;20.27;;;18.70;99.90;;;;;;4965817;28;20094;-63
2021/07/16 00:58:20;;;;;;;35.55;20.70;;;18.60;99.90;;;;;;4995289;28;20041;-59
2021/07/16 01:00:46;;;;;;;35.28;19.45;;;18.60;99.90;;;;;;4994140;28;20041;-62
2021/07/16 01:03:12;;;;;;;38.10;19.15;;;18.60;99.90;;;;;;4990634;28;20033;-62
2021/07/16 01:05:38;;;;;;;34.33;19.05;;;18.50;99.90;;;;;;4994092;28;20077;-62
2021/07/16 01:08:04;;;;;;;34.47;17.73;;;18.40;99.90;;;;;;4991975;28;20033;-61
2021/07/16 01:10:31;;;;;;;31.48;18.08;;;18.40;99.90;;;;;;4999796;28;20026;-61
2021/07/16 01:12:57;;;;;;;33.35;18.50;;;18.40;99.90;;;;;;4971928;28;20030;-62
2021/07/16 01:15:25;;;;;;;29.40;16.20;;;18.40;99.90;;;;;;5001112;28;20100;-61
2021/07/16 01:17:52;;;;;;;26.90;16.17;;;18.30;99.90;;;;;;5005133;28;20022;-60
2021/07/16 01:20:22;;;;;;;25.92;16.42;;;18.30;99.90;;;;;;4983428;28;20084;-60
2021/07/16 01:22:48;;;;;;;27.67;16.90;;;18.30;99.90;;;;;;5002662;28;20021;-62
2021/07/16 01:25:19;;;;;;;30.13;15.88;;;18.30;99.90;;;;;;5007420;28;20037;-59
2021/07/16 01:27:47;;;;;;;31.58;16.67;;;18.30;99.90;;;;;;5003692;28;20133;-62
2021/07/16 01:30:15;;;;;;;26.75;15.18;;;18.30;99.90;;;;;;5004278;28;20058;-62
2021/07/16 01:32:41;;;;;;;28.40;16.42;;;18.30;99.90;;;;;;5003593;28;20022;-61
2021/07/16 01:35:09;;;;;;;30.63;17.67;;;18.30;99.90;;;;;;5007529;28;20022;-61
2021/07/16 01:37:37;;;;;;;31.80;15.57;;;18.30;99.90;;;;;;5002188;28;20080;-60
2021/07/16 01:40:05;;;;;;;28.67;15.32;;;18.30;99.90;;;;;;5005503;28;20499;-61
2021/07/16 01:42:36;;;;;;;28.55;15.02;;;18.30;99.90;;;;;;5003647;28;20043;-63
2021/07/16 01:45:08;;;;;;;24.98;14.55;;;18.30;99.90;;;;;;5001284;28;20053;-61
2021/07/16 01:47:33;;;;;;;26.60;15.13;;;18.30;99.90;;;;;;5007267;28;20064;-59
2021/07/16 01:50:02;;;;;;;27.55;14.93;;;18.30;99.90;;;;;;5008709;28;20476;-60
2021/07/16 01:52:28;;;;;;;31.83;17.27;;;18.40;99.90;;;;;;5001912;28;20029;-62
2021/07/16 01:54:53;;;;;;;24.63;14.68;;;18.30;99.90;;;;;;5005542;28;20495;-61
2021/07/16 01:57:19;;;;;;;26.42;12.43;;;18.30;99.90;;;;;;5002246;28;20034;-61
2021/07/16 01:59:45;;;;;;;20.17;13.07;;;18.30;99.90;;;;;;5004973;28;20048;-58
2021/07/16 02:02:10;;;;;;;21.83;11.77;;;18.20;99.90;;;;;;5009288;28;20013;-59
2021/07/16 02:04:36;;;;;;;21.65;12.10;;;18.20;99.90;;;;;;5004776;28;20117;-60
2021/07/16 02:07:02;;;;;;;17.80;11.38;;;18.20;99.90;;;;;;5001994;28;20034;-59
2021/07/16 02:09:27;;;;;;;21.10;11.80;;;18.20;99.90;;;;;;5002390;28;20034;-60
2021/07/16 02:11:57;;;;;;;20.75;11.10;;;18.20;99.90;;;;;;5011451;28;20109;-61
2021/07/16 02:14:26;;;;;;;19.98;10.85;;;18.10;99.90;;;;;;4969631;28;20068;-62
2021/07/16 02:16:54;;;;;;;17.88;12.50;;;18.10;99.90;;;;;;5003727;28;20495;-60
2021/07/16 02:19:23;;;;;;;22.67;11.30;;;18.10;99.90;;;;;;5008171;28;20032;-61
2021/07/16 02:21:49;;;;;;;20.75;11.52;;;18.10;99.90;;;;;;5005000;28;20495;-59
2021/07/16 02:24:15;;;;;;;21.73;11.75;;;18.10;99.90;;;;;;5006482;28;20057;-60
2021/07/16 02:26:40;;;;;;;19.35;11.30;;;18.10;99.90;;;;;;5007800;28;20065;-62
2021/07/16 02:29:06;;;;;;;19.27;11.25;;;18.20;99.90;;;;;;5008813;28;20121;-61
2021/07/16 02:31:32;;;;;;;21.02;11.23;;;18.20;99.90;;;;;;5005573;28;20554;-59
2021/07/16 02:33:58;;;;;;;23.90;12.63;;;18.20;99.90;;;;;;5001093;28;20035;-61
2021/07/16 02:36:24;;;;;;;26.98;12.70;;;18.10;99.90;;;;;;5000607;28;20043;-60
2021/07/16 02:38:50;;;;;;;21.15;12.73;;;18.20;99.90;;;;;;5000344;28;20030;-61
2021/07/16 02:41:17;;;;;;;24.67;14.65;;;18.10;99.90;;;;;;5001177;28;20030;-59
2021/07/16 02:43:42;;;;;;;21.77;13.50;;;18.10;99.90;;;;;;5005564;28;20647;-59
2021/07/16 02:46:08;;;;;;;23.92;13.90;;;18.10;99.90;;;;;;5005019;28;20044;-60
2021/07/16 02:48:34;;;;;;;24.88;14.98;;;18.00;99.90;;;;;;5004779;28;20104;-61
2021/07/16 02:51:00;;;;;;;26.63;15.43;;;18.10;99.90;;;;;;5005627;28;20109;-59
2021/07/16 02:53:25;;;;;;;26.55;14.80;;;18.00;99.90;;;;;;5005966;28;20022;-61
2021/07/16 02:55:52;;;;;;;25.55;14.90;;;18.00;99.90;;;;;;5003665;28;20042;-59
2021/07/16 02:58:18;;;;;;;30.48;14.40;;;17.90;99.90;;;;;;4997753;28;20034;-60
2021/07/16 03:00:43;;;;;;;26.70;14.38;;;17.90;99.90;;;;;;5004298;28;20048;-61
2021/07/16 03:03:09;;;;;;;28.60;14.70;;;17.90;99.90;;;;;;4994951;28;20022;-60
2021/07/16 03:05:37;;;;;;;31.58;14.82;;;17.90;99.90;;;;;;5001850;28;20053;-61
2021/07/16 03:08:07;;;;;;;28.67;14.70;;;17.80;99.90;;;;;;5007220;28;20033;-59
2021/07/16 03:10:39;;;;;;;32.28;13.60;;;17.90;99.90;;;;;;4999631;28;20117;-62
2021/07/16 03:13:07;;;;;;;24.90;13.52;;;17.90;99.90;;;;;;4978976;28;20454;-62
2021/07/16 03:15:35;;;;;;;22.38;13.27;;;17.80;99.90;;;;;;4984464;28;20038;-61
2021/07/16 03:18:00;;;;;;;26.17;13.45;;;17.70;99.90;;;;;;4988762;28;20014;-61
2021/07/16 03:20:34;;;;;;;24.83;13.23;;;17.70;99.90;;;;;;4988748;28;20033;-59
2021/07/16 03:23:00;;;;;;;27.35;13.43;;;17.60;99.90;;;;;;4986497;28;20109;-61
2021/07/16 03:25:27;;;;;;;26.58;14.60;;;17.60;99.90;;;;;;4987989;28;20066;-62
2021/07/16 03:27:53;;;;;;;25.55;13.00;;;17.50;99.90;;;;;;4989660;28;20085;-60
2021/07/16 03:30:22;;;;;;;30.77;14.00;;;17.50;99.90;;;;;;4988962;28;20053;-61
2021/07/16 03:32:48;;;;;;;21.52;11.75;;;17.50;99.90;;;;;;4987767;28;20026;-61
2021/07/16 03:35:14;;;;;;;21.45;11.25;;;17.40;99.90;;;;;;4990353;28;20023;-62
2021/07/16 03:37:41;;;;;;;17.35;10.40;;;17.40;99.90;;;;;;4988899;28;20026;-62
2021/07/16 03:40:09;;;;;;;16.75;9.00;;;17.40;99.90;;;;;;4989254;28;20030;-61
2021/07/16 03:42:35;;;;;;;20.88;9.98;;;17.40;99.90;;;;;;4972382;28;20034;-63
2021/07/16 03:45:03;;;;;;;15.57;9.30;;;17.40;99.90;;;;;;4989063;28;20570;-62
2021/07/16 03:47:28;;;;;;;14.68;7.90;;;17.40;99.90;;;;;;4984410;28;20042;-63
2021/07/16 03:49:54;;;;;;;13.15;7.00;;;17.40;99.90;;;;;;4985773;28;20036;-61
2021/07/16 03:52:21;;;;;;;11.57;6.18;;;17.40;99.90;;;;;;4988209;28;20026;-61
2021/07/16 03:54:47;;;;;;;18.08;7.40;;;17.40;99.90;;;;;;4985557;28;20125;-62
2021/07/16 03:57:12;;;;;;;16.38;6.78;;;17.40;99.90;;;;;;4964279;28;20555;-62
2021/07/16 03:59:38;;;;;;;12.90;6.15;;;17.40;99.90;;;;;;4989175;28;20073;-59
2021/07/16 04:02:04;;;;;;;12.38;6.43;;;17.40;99.90;;;;;;4988175;28;20027;-59
2021/07/16 04:04:30;;;;;;;12.07;5.88;;;17.40;99.90;;;;;;4990423;28;20061;-61
2021/07/16 04:06:57;;;;;;;14.73;6.00;;;17.40;99.90;;;;;;4987910;28;20042;-60
2021/07/16 04:09:27;;;;;;;11.77;5.88;;;17.40;99.90;;;;;;4988451;28;20026;-61
2021/07/16 04:12:07;;;;;;;17.15;7.38;;;17.40;99.90;;;;;;4987621;28;20038;-61
2021/07/16 04:14:34;;;;;;;15.05;6.28;;;17.40;99.90;;;;;;4940481;28;20038;-60
2021/07/16 04:17:00;;;;;;;20.77;6.45;;;17.30;99.90;;;;;;4984421;28;20026;-61
2021/07/16 04:19:25;;;;;;;15.65;6.75;;;17.40;99.90;;;;;;4988290;28;20512;-59
2021/07/16 04:21:51;;;;;;;14.52;6.53;;;17.40;99.90;;;;;;4989244;28;20034;-61
2021/07/16 04:24:16;;;;;;;14.73;6.25;;;17.40;99.90;;;;;;4987022;28;20035;-61
2021/07/16 04:26:42;;;;;;;12.48;6.32;;;17.40;99.90;;;;;;4990971;28;20034;-59
2021/07/16 04:29:07;;;;;;;16.38;6.85;;;17.40;99.90;;;;;;4989747;28;20019;-61
2021/07/16 04:31:33;;;;;;;12.50;5.30;;;17.40;99.90;;;;;;4970829;28;20161;-61
2021/07/16 04:33:58;;;;;;;10.55;5.57;;;17.40;99.90;;;;;;4988628;28;20042;-61
2021/07/16 04:36:24;;;;;;;11.25;5.75;;;17.30;99.90;;;;;;4987142;28;20023;-61
2021/07/16 04:38:50;;;;;;;12.07;5.63;;;17.40;99.90;;;;;;4989493;28;20030;-59
2021/07/16 04:41:15;;;;;;;10.75;6.05;;;17.40;99.90;;;;;;4972860;28;20157;-61
2021/07/16 04:43:41;;;;;;;13.95;5.70;;;17.40;99.90;;;;;;4986202;28;20026;-60
2021/07/16 04:46:06;;;;;;;16.05;8.07;;;17.40;99.90;;;;;;4989340;28;20109;-60
2021/07/16 04:48:32;;;;;;;12.13;6.13;;;17.40;99.90;;;;;;4987406;28;20113;-61
2021/07/16 04:50:57;;;;;;;13.57;5.70;;;17.40;99.90;;;;;;4991171;28;20088;-59
2021/07/16 04:53:23;;;;;;;15.82;6.88;;;17.40;99.90;;;;;;4987959;28;20073;-59
2021/07/16 04:55:48;;;;;;;12.82;6.75;;;17.40;99.90;;;;;;4986756;28;20441;-59
2021/07/16 04:58:14;;;;;;;9.88;5.82;;;17.40;99.90;;;;;;4987814;28;20568;-62
2021/07/16 05:00:39;;;;;;;11.20;5.93;;;17.40;99.90;;;;;;4991618;28;20030;-59
2021/07/16 05:03:05;;;;;;;14.13;6.88;;;17.40;99.90;;;;;;4988527;28;20034;-61
2021/07/16 05:05:30;;;;;;;13.77;7.45;;;17.30;99.90;;;;;;4972285;28;20053;-61
2021/07/16 05:07:56;;;;;;;13.48;6.95;;;17.50;99.90;;;;;;4991172;28;20054;-60
2021/07/16 05:10:22;;;;;;;15.82;6.55;;;17.40;99.90;;;;;;4990075;28;20056;-59
2021/07/16 05:12:47;;;;;;;10.75;6.90;;;17.50;99.90;;;;;;4992754;28;20142;-59
2021/07/16 05:15:13;;;;;;;9.80;6.70;;;17.50;99.90;;;;;;4983346;28;20046;-61
2021/07/16 05:17:39;;;;;;;12.57;6.45;;;17.50;99.90;;;;;;5003363;28;20431;-60
2021/07/16 05:20:06;;;;;;;9.85;6.50;;;17.50;99.90;;;;;;5002214;28;20026;-60
2021/07/16 05:22:32;;;;;;;18.60;7.47;;;17.50;99.90;;;;;;5006658;28;20030;-60
2021/07/16 05:24:57;;;;;;;10.45;6.32;;;17.50;99.90;;;;;;5005198;28;20038;-61
2021/07/16 05:27:23;;;;;;;8.93;7.57;;;17.60;99.90;;;;;;5005008;28;20030;-61
2021/07/16 05:29:49;;;;;;;8.73;7.25;;;17.60;99.90;;;;;;4986780;28;20034;-62
2021/07/16 05:32:14;;;;;;;17.80;8.48;;;17.60;99.90;;;;;;5003192;28;20447;-62
2021/07/16 05:34:40;;;;;;;15.48;8.30;;;17.50;99.90;;;;;;5007935;28;20022;-61
2021/07/16 05:37:06;;;;;;;15.75;9.63;;;17.60;99.90;;;;;;5005290;28;20038;-62
2021/07/16 05:39:31;;;;;;;15.20;8.93;;;17.60;99.90;;;;;;4997600;28;20027;-62
2021/07/16 05:41:57;;;;;;;18.58;8.63;;;17.50;99.90;;;;;;5005742;28;20112;-62
2021/07/16 05:44:22;;;;;;;13.15;8.88;;;17.60;99.90;;;;;;5006231;28;20022;-60
2021/07/16 05:46:48;;;;;;;14.55;9.93;;;17.70;99.90;;;;;;5003436;28;20033;-61
2021/07/16 05:49:14;;;;;;;10.35;8.57;;;17.70;99.90;;;;;;5003901;28;20073;-61
2021/07/16 05:51:39;;;;;;;13.35;9.68;;;17.80;99.90;;;;;;5007452;28;20551;-60
2021/07/16 05:54:05;;;;;;;14.02;8.98;;;17.80;99.90;;;;;;5005275;28;20407;-60
2021/07/16 05:56:30;;;;;;;13.77;8.13;;;17.90;99.90;;;;;;5006570;28;20042;-63
2021/07/16 05:58:56;;;;;;;13.35;8.30;;;18.00;99.90;;;;;;4999296;28;20519;-62
2021/07/16 06:01:22;;;;;;;14.52;9.45;;;17.90;99.90;;;;;;5007646;28;20034;-62
2021/07/16 06:03:47;;;;;;;16.02;8.20;;;17.90;99.90;;;;;;4991780;28;20123;-59
2021/07/16 06:06:13;;;;;;;12.35;8.20;;;17.80;99.90;;;;;;5010537;28;20033;-61
2021/07/16 06:08:38;;;;;;;15.07;8.93;;;17.90;99.90;;;;;;5006761;28;20522;-62
2021/07/16 06:11:04;;;;;;;19.02;8.55;;;17.90;99.90;;;;;;5012273;28;20014;-60
2021/07/16 06:13:29;;;;;;;18.80;9.05;;;18.00;99.90;;;;;;4970236;28;20022;-60
2021/07/16 06:15:55;;;;;;;14.05;8.18;;;18.00;99.90;;;;;;4991327;28;20066;-60
2021/07/16 06:18:22;;;;;;;16.25;7.40;;;18.10;99.90;;;;;;4988482;28;20388;-62
2021/07/16 06:20:48;;;;;;;16.15;8.43;;;18.10;99.90;;;;;;4991196;28;20033;-61
2021/07/16 06:23:14;;;;;;;13.13;8.27;;;18.20;99.90;;;;;;4989067;28;20034;-62
2021/07/16 06:25:40;;;;;;;15.40;9.00;;;18.20;99.90;;;;;;4974439;28;20029;-59
2021/07/16 06:28:06;;;;;;;17.20;8.63;;;18.30;99.90;;;;;;4973713;28;20444;-62
2021/07/16 06:30:31;;;;;;;13.63;7.72;;;18.30;99.90;;;;;;4989617;28;20026;-62
2021/07/16 06:32:57;;;;;;;13.40;7.75;;;18.30;99.90;;;;;;4990292;28;20515;-62
2021/07/16 06:35:22;;;;;;;17.10;8.45;;;18.40;99.90;;;;;;4989007;28;20032;-61
2021/07/16 06:37:48;;;;;;;19.60;8.90;;;18.40;99.90;;;;;;4974780;28;20065;-62
2021/07/16 06:40:14;;;;;;;14.77;8.50;;;18.40;99.90;;;;;;4990112;28;20087;-61
2021/07/16 06:42:39;;;;;;;16.70;9.48;;;18.30;99.90;;;;;;4988816;28;20113;-62
2021/07/16 06:45:06;;;;;;;16.42;8.57;;;18.20;99.90;;;;;;4991394;28;20033;-59
2021/07/16 06:47:32;;;;;;;19.85;9.27;;;18.10;99.90;;;;;;4987753;28;20081;-61
2021/07/16 06:49:57;;;;;;;17.92;8.95;;;18.00;99.90;;;;;;4991679;28;20026;-61
2021/07/16 06:52:23;;;;;;;18.95;9.00;;;18.00;99.90;;;;;;4988528;28;20065;-61
2021/07/16 06:54:48;;;;;;;20.38;9.45;;;18.00;99.90;;;;;;4991795;28;20030;-61
2021/07/16 06:57:14;;;;;;;17.13;9.32;;;17.90;99.90;;;;;;4982813;28;20029;-61
2021/07/16 06:59:39;;;;;;;17.52;9.82;;;17.90;99.90;;;;;;4991538;28;20500;-61
2021/07/16 07:02:06;;;;;;;19.52;11.07;;;17.80;99.90;;;;;;4984400;28;20072;-62
2021/07/16 07:04:32;;;;;;;23.52;10.43;;;17.80;99.90;;;;;;4978739;28;20034;-60
2021/07/16 07:06:57;;;;;;;23.13;10.80;;;17.80;99.90;;;;;;4987246;28;20022;-61
2021/07/16 07:09:23;;;;;;;29.90;11.55;;;17.70;99.90;;;;;;4974775;28;20893;-61
2021/07/16 07:11:49;;;;;;;35.17;11.75;;;17.60;99.90;;;;;;4989369;28;20596;-57
2021/07/16 07:14:14;;;;;;;20.83;10.70;;;17.60;99.90;;;;;;4962038;28;20038;-61
2021/07/16 07:16:40;;;;;;;24.17;12.55;;;17.70;99.90;;;;;;4988635;28;20086;-61
2021/07/16 07:19:05;;;;;;;16.65;11.77;;;17.70;99.90;;;;;;4990352;28;20029;-60
2021/07/16 07:21:31;;;;;;;23.27;11.48;;;17.70;99.90;;;;;;4987780;28;20018;-62
2021/07/16 07:23:57;;;;;;;17.23;10.65;;;17.60;99.90;;;;;;4986232;28;20508;-60
2021/07/16 07:26:22;;;;;;;29.15;13.15;;;17.60;99.90;;;;;;4987764;28;20575;-60
2021/07/16 07:28:48;;;;;;;34.97;13.70;;;17.40;99.90;;;;;;4989205;28;20033;-61
2021/07/16 07:31:14;;;;;;;31.20;13.02;;;17.40;99.90;;;;;;4989979;28;20060;-60
2021/07/16 07:33:40;;;;;;;28.20;11.70;;;17.40;99.90;;;;;;4986425;28;20030;-58
2021/07/16 07:36:05;;;;;;;25.45;13.68;;;17.40;99.90;;;;;;4989835;28;20042;-60
2021/07/16 07:38:35;;;;;;;29.98;12.13;;;17.40;99.90;;;;;;4987626;28;20030;-62
2021/07/16 07:41:02;;;;;;;27.70;11.52;;;17.30;99.90;;;;;;4990058;28;20101;-61
2021/07/16 07:43:27;;;;;;;22.63;13.20;;;17.20;99.90;;;;;;4989180;28;20092;-61
2021/07/16 07:45:54;;;;;;;20.08;10.85;;;17.30;99.90;;;;;;4990107;28;20022;-60
2021/07/16 07:48:20;;;;;;;20.60;10.77;;;17.30;99.90;;;;;;4988597;28;20370;-60
2021/07/16 07:50:46;;;;;;;19.08;10.75;;;17.30;99.90;;;;;;4989410;28;20126;-61
2021/07/16 07:53:11;;;;;;;20.10;9.73;;;17.30;99.90;;;;;;4988654;28;20035;-61
2021/07/16 07:55:37;;;;;;;20.30;10.55;;;17.30;99.90;;;;;;4989514;28;20073;-62
2021/07/16 07:58:03;;;;;;;17.88;9.65;;;17.30;99.90;;;;;;4988671;28;20033;-62
2021/07/16 08:00:29;;;;;;;13.15;8.00;;;17.50;99.90;;;;;;4988999;28;20032;-62
2021/07/16 08:02:55;;;;;;;16.38;8.25;;;17.50;99.90;;;;;;4990078;28;20054;-62
2021/07/16 08:05:21;;;;;;;15.70;8.05;;;17.50;99.90;;;;;;4986694;28;20040;-63
2021/07/16 08:07:46;;;;;;;9.13;6.70;;;17.60;99.90;;;;;;4985839;28;20501;-62
2021/07/16 08:10:15;;;;;;;14.93;8.18;;;17.70;99.90;;;;;;4988290;28;20027;-60
2021/07/16 08:12:42;;;;;;;17.00;7.65;;;17.70;99.90;;;;;;4989542;28;20034;-60
2021/07/16 08:15:09;;;;;;;15.60;7.68;;;17.70;99.90;;;;;;4969153;28;20034;-61
2021/07/16 08:17:34;;;;;;;14.90;6.75;;;17.90;99.90;;;;;;5006642;28;20037;-62
2021/07/16 08:20:00;;;;;;;8.70;6.15;;;18.00;99.90;;;;;;5009546;28;20030;-61
2021/07/16 08:22:26;;;;;;;14.20;7.68;;;18.10;99.90;;;;;;5007485;28;20487;-62
2021/07/16 08:24:52;;;;;;;13.45;6.53;;;18.30;99.90;;;;;;5009277;28;20037;-61
2021/07/16 08:27:18;;;;;;;10.40;7.13;;;18.40;99.90;;;;;;5007294;28;20023;-63
2021/07/16 08:29:43;;;;;;;22.65;11.70;;;18.40;99.90;;;;;;5009399;28;20085;-62
2021/07/16 08:32:09;;;;;;;19.08;11.60;;;18.60;99.90;;;;;;5004469;28;20160;-62
2021/07/16 08:34:35;;;;;;;25.65;12.57;;;18.70;99.90;;;;;;4990491;28;20049;-62
2021/07/16 08:37:00;;;;;;;22.20;12.88;;;18.60;99.90;;;;;;5008108;28;20017;-62
2021/07/16 08:39:26;;;;;;;25.80;13.88;;;18.70;99.90;;;;;;5006946;28;20042;-62
2021/07/16 08:41:52;;;;;;;28.33;14.18;;;18.80;99.90;;;;;;5006250;28;20045;-62
2021/07/16 08:44:18;;;;;;;30.33;14.40;;;19.00;99.90;;;;;;5009543;28;20037;-62
2021/07/16 08:46:45;;;;;;;34.78;17.02;;;19.10;99.90;;;;;;5010541;28;20038;-62
2021/07/16 08:49:15;;;;;;;33.53;16.92;;;19.10;99.90;;;;;;5007332;28;20053;-62
2021/07/16 08:51:42;;;;;;;27.73;16.48;;;19.10;99.90;;;;;;5008096;28;20022;-61
2021/07/16 08:54:17;;;;;;;28.23;15.88;;;19.00;99.90;;;;;;5011661;28;20024;-61
2021/07/16 08:56:43;;;;;;;37.90;16.73;;;19.10;99.90;;;;;;5012249;28;20084;-63
2021/07/16 08:59:09;;;;;;;32.63;16.10;;;19.10;99.90;;;;;;5011540;28;20030;-61
2021/07/16 09:01:36;;;;;;;27.67;16.65;;;19.00;99.90;;;;;;5011725;28;20061;-62
2021/07/16 09:04:04;;;;;;;35.72;16.55;;;19.00;99.90;;;;;;5008323;28;20056;-63
2021/07/16 09:06:45;;;;;;;23.58;15.23;;;18.80;99.90;;;;;;5008292;28;20113;-62
2021/07/16 09:09:12;;;;;;;33.42;18.08;;;18.70;99.90;;;;;;5008028;28;20030;-61
2021/07/16 09:11:40;;;;;;;27.67;16.85;;;18.70;99.90;;;;;;5011553;28;20164;-61
2021/07/16 09:14:05;;;;;;;33.10;16.33;;;18.60;99.90;;;;;;4982716;28;20042;-62
2021/07/16 09:16:31;;;;;;;28.67;17.75;;;18.60;99.90;;;;;;4992590;28;20554;-63
2021/07/16 09:18:57;;;;;;;33.00;17.52;;;18.40;99.90;;;;;;5011751;28;20141;-63
2021/07/16 09:21:23;;;;;;;27.30;15.35;;;18.40;99.90;;;;;;5009955;28;20054;-62
2021/07/16 09:23:49;;;;;;;26.02;14.50;;;18.50;99.90;;;;;;5011628;28;20054;-61
2021/07/16 09:26:26;;;;;;;28.65;16.15;;;18.60;99.90;;;;;;5009186;28;20030;-62
2021/07/16 09:28:51;;;;;;;28.77;16.35;;;18.50;99.90;;;;;;5010165;28;20034;-62
2021/07/16 09:31:27;;;;;;;22.38;16.13;;;18.30;99.90;;;;;;5008138;28;20026;-60
2021/07/16 09:33:53;;;;;;;24.55;16.35;;;18.40;99.90;;;;;;5006247;28;20033;-61
2021/07/16 09:36:34;;;;;;;27.70;16.10;;;18.10;99.90;;;;;;4990808;28;20044;-61
2021/07/16 09:39:16;;;;;;;25.17;16.48;;;18.00;99.90;;;;;;5005206;28;20129;-62
2021/07/16 09:41:50;;;;;;;24.95;15.45;;;18.00;99.90;;;;;;4993522;28;20030;-62
2021/07/16 09:44:28;;;;;;;21.92;15.77;;;18.00;99.90;;;;;;5001982;28;20033;-62
2021/07/16 09:47:09;;;;;;;25.80;15.30;;;18.20;99.90;;;;;;5007664;28;20025;-62
2021/07/16 09:49:35;;;;;;;33.92;17.92;;;18.20;99.90;;;;;;5005821;28;20054;-62
2021/07/16 09:52:09;;;;;;;22.70;15.45;;;18.40;99.90;;;;;;5010703;28;20021;-64
2021/07/16 09:54:35;;;;;;;22.42;16.08;;;18.60;99.90;;;;;;5001616;28;20551;-63
2021/07/16 09:57:00;;;;;;;27.13;16.63;;;18.80;99.90;;;;;;5005481;28;20122;-62
2021/07/16 09:59:29;;;;;;;20.58;15.30;;;18.70;99.90;;;;;;5008577;28;20030;-62
2021/07/16 10:01:55;;;;;;;22.95;16.40;;;18.80;99.90;;;;;;4992960;28;20048;-61
2021/07/16 10:04:21;;;;;;;21.30;13.98;;;19.10;99.90;;;;;;5008500;28;20419;-62
2021/07/16 10:06:50;;;;;;;24.88;14.13;;;19.40;99.90;;;;;;5009803;28;20589;-62
2021/07/16 10:09:17;;;;;;;23.42;14.75;;;19.50;99.90;;;;;;4994084;28;20022;-61
2021/07/16 10:11:48;;;;;;;18.58;14.02;;;19.30;99.90;;;;;;5010831;28;20046;-62
2021/07/16 10:14:15;;;;;;;20.15;13.65;;;19.50;99.90;;;;;;5008222;28;20077;-62
2021/07/16 10:16:45;;;;;;;19.20;14.50;;;19.80;99.90;;;;;;4981105;28;20530;-63
2021/07/16 10:19:12;;;;;;;19.35;12.65;;;20.20;99.90;;;;;;4986894;28;20040;-63
2021/07/16 10:21:39;;;;;;;15.05;10.95;;;20.70;99.90;;;;;;4982039;28;20030;-63
2021/07/16 10:24:05;;;;;;;14.50;12.13;;;20.60;99.90;;;;;;4989499;28;20080;-63
2021/07/16 10:26:32;;;;;;;17.60;13.07;;;20.80;99.90;;;;;;4985879;28;20030;-63
2021/07/16 10:28:57;;;;;;;20.52;13.10;;;20.90;99.90;;;;;;4986540;28;20030;-62
2021/07/16 10:31:29;;;;;;;16.58;11.68;;;20.90;99.90;;;;;;4989739;28;20451;-62
2021/07/16 10:34:18;;;;;;;17.30;11.88;;;21.00;99.90;;;;;;4977192;28;20043;-61
2021/07/16 10:36:46;;;;;;;17.77;13.32;;;20.50;99.90;;;;;;4983799;28;20038;-61
2021/07/16 10:39:18;;;;;;;20.80;13.10;;;19.90;99.90;;;;;;4989893;28;20049;-62
2021/07/16 10:41:44;;;;;;;21.63;13.48;;;19.70;99.90;;;;;;4988713;28;20054;-62
2021/07/16 10:44:12;;;;;;;19.45;14.43;;;19.60;99.90;;;;;;4978293;28;20073;-63
2021/07/16 10:46:43;;;;;;;20.33;13.18;;;19.30;99.90;;;;;;4990545;28;20058;-61
2021/07/16 10:49:11;;;;;;;23.35;13.23;;;19.30;99.90;;;;;;4985210;28;20240;-60
2021/07/16 10:51:37;;;;;;;24.08;14.23;;;19.50;99.90;;;;;;4980207;28;20034;-62
2021/07/16 10:54:05;;;;;;;19.27;13.15;;;19.60;99.90;;;;;;4987196;28;20054;-62
2021/07/16 10:56:47;;;;;;;20.33;13.73;;;19.80;99.90;;;;;;4985229;28;20019;-60
2021/07/16 10:59:45;;;;;;;20.30;14.35;;;19.90;99.90;;;;;;4981289;28;20034;-62
2021/07/16 11:02:49;;;;;;;24.90;14.65;;;19.70;99.90;;;;;;4956493;28;20046;-62
2021/07/16 11:05:33;;;;;;;21.63;15.60;;;19.70;99.90;;;;;;4976245;28;20018;-61
2021/07/16 11:08:03;;;;;;;19.15;14.07;;;19.80;99.90;;;;;;4977829;28;20305;-62
2021/07/16 11:10:50;;;;;;;23.75;15.25;;;19.70;99.90;;;;;;4979967;28;20033;-62
2021/07/16 11:13:34;;;;;;;17.42;12.70;;;19.60;99.90;;;;;;4962549;28;20066;-62
2021/07/16 11:16:34;;;;;;;21.02;14.02;;;19.50;99.90;;;;;;4966733;28;20050;-62
2021/07/16 11:19:09;;;;;;;16.90;13.68;;;19.70;99.90;;;;;;4975719;28;20041;-61
2021/07/16 11:21:47;;;;;;;19.02;13.50;;;20.00;99.90;;;;;;4976854;28;20031;-63
2021/07/16 11:24:19;;;;;;;17.98;13.10;;;20.30;99.90;;;;;;4969694;28;20022;-62
2021/07/16 11:26:55;;;;;;;17.80;12.82;;;20.40;99.90;;;;;;4977397;28;20708;-62
2021/07/16 11:29:23;;;;;;;19.42;13.43;;;20.50;99.90;;;;;;4979433;28;20488;-63
2021/07/16 11:32:13;;;;;;;16.67;12.30;;;20.50;99.90;;;;;;4976956;28;20531;-60
2021/07/16 11:35:00;;;;;;;16.08;12.35;;;20.70;99.90;;;;;;4958255;28;20425;-62
2021/07/16 11:37:25;;;;;;;19.83;13.02;;;20.90;99.90;;;;;;4980201;28;20028;-62
2021/07/16 11:39:53;;;;;;;15.43;11.80;;;21.30;99.90;;;;;;4982971;28;20172;-60
2021/07/16 11:42:19;;;;;;;17.83;13.15;;;21.50;99.90;;;;;;4960829;28;20447;-62
2021/07/16 11:44:45;;;;;;;16.75;13.23;;;21.40;99.90;;;;;;4980456;28;20030;-60
2021/07/16 11:47:19;;;;;;;15.35;12.05;;;21.50;99.90;;;;;;4980044;28;20400;-62
2021/07/16 11:49:47;;;;;;;17.00;12.63;;;21.40;99.90;;;;;;4981170;28;20023;-62
2021/07/16 11:52:21;;;;;;;19.10;12.18;;;21.30;99.90;;;;;;4981212;28;20050;-62
2021/07/16 11:54:47;;;;;;;15.98;11.77;;;21.20;99.90;;;;;;4967696;28;20027;-62
2021/07/16 11:57:16;;;;;;;18.45;12.18;;;21.10;99.90;;;;;;4977229;28;20512;-60
2021/07/16 11:59:52;;;;;;;15.10;11.35;;;21.00;99.90;;;;;;4976142;28;20117;-63
2021/07/16 12:02:19;;;;;;;15.93;9.05;;;21.10;99.90;;;;;;4977013;28;20084;-62
2021/07/16 12:04:47;;;;;;;14.57;9.57;;;21.10;99.90;;;;;;4982105;28;20113;-62
2021/07/16 12:07:13;;;;;;;15.95;9.88;;;20.80;99.90;;;;;;4977928;28;20019;-61
2021/07/16 12:09:44;;;;;;;14.15;9.00;;;20.60;99.90;;;;;;4974633;28;20026;-62
2021/07/16 12:12:12;;;;;;;12.15;8.63;;;20.50;99.90;;;;;;4971419;28;20018;-62
2021/07/16 12:14:47;;;;;;;18.30;8.50;;;20.50;99.90;;;;;;4970022;28;20034;-62
2021/07/16 12:17:13;;;;;;;13.50;8.18;;;20.50;99.90;;;;;;4961552;28;20039;-63
2021/07/16 12:19:39;;;;;;;11.32;7.80;;;20.40;99.90;;;;;;4972249;28;20516;-60
2021/07/16 12:22:06;;;;;;;13.90;7.40;;;20.50;99.90;;;;;;4974819;28;20416;-62
2021/07/16 12:24:32;;;;;;;14.35;7.60;;;20.30;99.90;;;;;;4956091;28;20476;-61
2021/07/16 12:27:12;;;;;;;18.02;8.63;;;20.40;99.90;;;;;;4975482;28;20038;-62
2021/07/16 12:29:39;;;;;;;15.30;7.40;;;20.70;99.90;;;;;;4970028;28;20086;-62
2021/07/16 12:32:06;;;;;;;16.95;7.90;;;21.10;99.90;;;;;;4977945;28;20030;-63
2021/07/16 12:34:32;;;;;;;17.27;8.23;;;21.40;99.90;;;;;;4978203;28;20051;-62